sensor_id;sensor_type;location;lat;lon;timestamp;P1;durP1;ratioP1;P2;durP2;ratioP2
10174;SDS011;18221;38.704;0.152;2024-03-07T00:01:22;9.17;;;3.03;;
10174;SDS011;18221;38.704;0.152;2024-03-07T00:03:51;10.73;;;3.10;;
10174;SDS011;18221;38.704;0.152;2024-03-07T00:06:19;9.70;;;2.90;;
10174;SDS011;18221;38.704;0.152;2024-03-07T00:08:49;7.60;;;2.67;;
10174;SDS011;18221;38.704;0.152;2024-03-07T00:11:17;6.03;;;2.57;;
10174;SDS011;18221;38.704;0.152;2024-03-07T00:13:44;9.30;;;2.97;;
10174;SDS011;18221;38.704;0.152;2024-03-07T00:16:12;4.90;;;2.80;;
10174;SDS011;18221;38.704;0.152;2024-03-07T00:18:40;8.03;;;2.83;;
10174;SDS011;18221;38.704;0.152;2024-03-07T00:21:08;7.00;;;2.50;;
10174;SDS011;18221;38.704;0.152;2024-03-07T00:23:36;9.00;;;2.80;;
10174;SDS011;18221;38.704;0.152;2024-03-07T00:26:05;7.77;;;3.10;;
10174;SDS011;18221;38.704;0.152;2024-03-07T00:28:33;8.50;;;2.67;;
10174;SDS011;18221;38.704;0.152;2024-03-07T00:31:04;5.63;;;2.70;;
10174;SDS011;18221;38.704;0.152;2024-03-07T00:33:34;7.47;;;3.57;;
10174;SDS011;18221;38.704;0.152;2024-03-07T00:36:02;6.83;;;2.93;;
10174;SDS011;18221;38.704;0.152;2024-03-07T00:38:32;8.10;;;3.20;;
10174;SDS011;18221;38.704;0.152;2024-03-07T00:40:59;7.40;;;2.73;;
10174;SDS011;18221;38.704;0.152;2024-03-07T00:43:29;8.03;;;2.80;;
10174;SDS011;18221;38.704;0.152;2024-03-07T00:45:57;8.80;;;2.90;;
10174;SDS011;18221;38.704;0.152;2024-03-07T00:48:25;8.23;;;2.87;;
10174;SDS011;18221;38.704;0.152;2024-03-07T01:01:18;7.60;;;2.83;;
10174;SDS011;18221;38.704;0.152;2024-03-07T01:03:46;9.13;;;2.73;;
10174;SDS011;18221;38.704;0.152;2024-03-07T01:06:13;7.37;;;2.90;;
10174;SDS011;18221;38.704;0.152;2024-03-07T01:08:41;8.97;;;2.90;;
10174;SDS011;18221;38.704;0.152;2024-03-07T01:11:09;8.33;;;2.70;;
10174;SDS011;18221;38.704;0.152;2024-03-07T01:13:37;6.93;;;2.90;;
10174;SDS011;18221;38.704;0.152;2024-03-07T01:16:06;6.97;;;2.70;;
10174;SDS011;18221;38.704;0.152;2024-03-07T01:18:36;10.47;;;3.10;;
10174;SDS011;18221;38.704;0.152;2024-03-07T01:26:09;6.40;;;2.73;;
10174;SDS011;18221;38.704;0.152;2024-03-07T01:28:37;7.20;;;2.70;;
10174;SDS011;18221;38.704;0.152;2024-03-07T01:31:04;5.13;;;2.60;;
10174;SDS011;18221;38.704;0.152;2024-03-07T01:33:32;8.23;;;2.93;;
10174;SDS011;18221;38.704;0.152;2024-03-07T01:35:59;8.40;;;2.70;;
10174;SDS011;18221;38.704;0.152;2024-03-07T01:38:26;8.27;;;3.10;;
10174;SDS011;18221;38.704;0.152;2024-03-07T01:40:53;8.50;;;2.83;;
10174;SDS011;18221;38.704;0.152;2024-03-07T01:43:21;5.87;;;2.97;;
10174;SDS011;18221;38.704;0.152;2024-03-07T01:48:41;7.77;;;2.67;;
10174;SDS011;18221;38.704;0.152;2024-03-07T01:51:09;9.97;;;3.00;;
10174;SDS011;18221;38.704;0.152;2024-03-07T01:53:37;6.40;;;2.77;;
10174;SDS011;18221;38.704;0.152;2024-03-07T01:56:04;10.80;;;2.60;;
10174;SDS011;18221;38.704;0.152;2024-03-07T01:58:32;5.80;;;2.50;;
10174;SDS011;18221;38.704;0.152;2024-03-07T02:01:02;5.27;;;2.83;;
10174;SDS011;18221;38.704;0.152;2024-03-07T02:03:29;8.47;;;3.03;;
10174;SDS011;18221;38.704;0.152;2024-03-07T02:09:08;7.40;;;2.90;;
10174;SDS011;18221;38.704;0.152;2024-03-07T02:11:35;8.57;;;2.90;;
10174;SDS011;18221;38.704;0.152;2024-03-07T02:14:03;5.97;;;2.60;;
10174;SDS011;18221;38.704;0.152;2024-03-07T02:16:31;9.10;;;2.63;;
10174;SDS011;18221;38.704;0.152;2024-03-07T02:18:58;5.57;;;3.30;;
10174;SDS011;18221;38.704;0.152;2024-03-07T02:21:28;6.30;;;3.13;;
10174;SDS011;18221;38.704;0.152;2024-03-07T02:23:56;5.93;;;2.63;;
10174;SDS011;18221;38.704;0.152;2024-03-07T02:26:24;8.17;;;2.77;;
10174;SDS011;18221;38.704;0.152;2024-03-07T02:28:52;5.53;;;2.57;;
10174;SDS011;18221;38.704;0.152;2024-03-07T02:31:20;6.67;;;2.70;;
10174;SDS011;18221;38.704;0.152;2024-03-07T02:34:00;11.20;;;2.80;;
10174;SDS011;18221;38.704;0.152;2024-03-07T02:36:29;9.27;;;2.93;;
10174;SDS011;18221;38.704;0.152;2024-03-07T02:38:57;5.23;;;2.57;;
10174;SDS011;18221;38.704;0.152;2024-03-07T02:41:25;8.67;;;2.97;;
10174;SDS011;18221;38.704;0.152;2024-03-07T02:43:53;8.27;;;3.00;;
10174;SDS011;18221;38.704;0.152;2024-03-07T02:46:21;11.07;;;3.00;;
10174;SDS011;18221;38.704;0.152;2024-03-07T02:48:49;10.43;;;3.07;;
10174;SDS011;18221;38.704;0.152;2024-03-07T02:51:17;7.03;;;2.43;;
10174;SDS011;18221;38.704;0.152;2024-03-07T02:53:46;7.97;;;2.43;;
10174;SDS011;18221;38.704;0.152;2024-03-07T02:56:15;9.43;;;2.93;;
10174;SDS011;18221;38.704;0.152;2024-03-07T02:58:43;6.47;;;3.27;;
10174;SDS011;18221;38.704;0.152;2024-03-07T03:01:11;7.00;;;3.10;;
10174;SDS011;18221;38.704;0.152;2024-03-07T03:03:38;8.47;;;3.37;;
10174;SDS011;18221;38.704;0.152;2024-03-07T03:06:07;7.97;;;3.57;;
10174;SDS011;18221;38.704;0.152;2024-03-07T03:08:36;8.53;;;3.20;;
10174;SDS011;18221;38.704;0.152;2024-03-07T03:11:05;10.57;;;3.60;;
10174;SDS011;18221;38.704;0.152;2024-03-07T03:13:34;8.63;;;3.70;;
10174;SDS011;18221;38.704;0.152;2024-03-07T03:16:04;10.53;;;4.00;;
10174;SDS011;18221;38.704;0.152;2024-03-07T03:18:33;8.33;;;3.60;;
10174;SDS011;18221;38.704;0.152;2024-03-07T03:21:01;6.43;;;3.50;;
10174;SDS011;18221;38.704;0.152;2024-03-07T03:23:29;8.13;;;4.10;;
10174;SDS011;18221;38.704;0.152;2024-03-07T03:25:57;9.63;;;3.67;;
10174;SDS011;18221;38.704;0.152;2024-03-07T03:28:27;6.13;;;3.10;;
10174;SDS011;18221;38.704;0.152;2024-03-07T03:30:55;8.53;;;4.40;;
10174;SDS011;18221;38.704;0.152;2024-03-07T03:33:22;8.60;;;3.70;;
10174;SDS011;18221;38.704;0.152;2024-03-07T03:35:50;5.73;;;3.03;;
10174;SDS011;18221;38.704;0.152;2024-03-07T03:38:20;5.27;;;3.07;;
10174;SDS011;18221;38.704;0.152;2024-03-07T03:40:48;8.47;;;3.43;;
10174;SDS011;18221;38.704;0.152;2024-03-07T03:43:16;7.90;;;3.33;;
10174;SDS011;18221;38.704;0.152;2024-03-07T03:45:45;7.37;;;3.73;;
10174;SDS011;18221;38.704;0.152;2024-03-07T03:48:13;7.27;;;3.17;;
10174;SDS011;18221;38.704;0.152;2024-03-07T03:50:41;7.47;;;3.40;;
10174;SDS011;18221;38.704;0.152;2024-03-07T03:53:09;5.53;;;3.33;;
10174;SDS011;18221;38.704;0.152;2024-03-07T03:55:37;8.60;;;3.67;;
10174;SDS011;18221;38.704;0.152;2024-03-07T03:58:05;7.73;;;3.47;;
10174;SDS011;18221;38.704;0.152;2024-03-07T04:00:33;9.97;;;4.10;;
10174;SDS011;18221;38.704;0.152;2024-03-07T04:03:02;7.43;;;3.63;;
10174;SDS011;18221;38.704;0.152;2024-03-07T04:05:30;7.43;;;3.50;;
10174;SDS011;18221;38.704;0.152;2024-03-07T04:07:58;5.73;;;2.87;;
10174;SDS011;18221;38.704;0.152;2024-03-07T04:10:26;5.60;;;2.80;;
10174;SDS011;18221;38.704;0.152;2024-03-07T04:12:54;7.90;;;3.20;;
10174;SDS011;18221;38.704;0.152;2024-03-07T04:15:22;8.10;;;3.13;;
10174;SDS011;18221;38.704;0.152;2024-03-07T04:17:52;8.23;;;3.00;;
10174;SDS011;18221;38.704;0.152;2024-03-07T04:20:21;6.47;;;2.70;;
10174;SDS011;18221;38.704;0.152;2024-03-07T04:22:50;7.27;;;2.83;;
10174;SDS011;18221;38.704;0.152;2024-03-07T04:25:18;6.30;;;2.70;;
10174;SDS011;18221;38.704;0.152;2024-03-07T04:27:45;4.60;;;2.53;;
10174;SDS011;18221;38.704;0.152;2024-03-07T04:30:14;7.67;;;2.70;;
10174;SDS011;18221;38.704;0.152;2024-03-07T04:32:43;7.37;;;2.80;;
10174;SDS011;18221;38.704;0.152;2024-03-07T04:35:11;4.70;;;2.63;;
10174;SDS011;18221;38.704;0.152;2024-03-07T04:37:40;5.77;;;2.53;;
10174;SDS011;18221;38.704;0.152;2024-03-07T04:40:09;6.47;;;2.73;;
10174;SDS011;18221;38.704;0.152;2024-03-07T04:42:41;11.60;;;3.20;;
10174;SDS011;18221;38.704;0.152;2024-03-07T04:45:10;8.57;;;3.40;;
10174;SDS011;18221;38.704;0.152;2024-03-07T04:47:39;14.73;;;3.63;;
10174;SDS011;18221;38.704;0.152;2024-03-07T04:50:08;7.07;;;3.50;;
10174;SDS011;18221;38.704;0.152;2024-03-07T04:52:37;7.70;;;3.73;;
10174;SDS011;18221;38.704;0.152;2024-03-07T04:55:07;8.00;;;4.13;;
10174;SDS011;18221;38.704;0.152;2024-03-07T04:57:36;8.13;;;3.87;;
10174;SDS011;18221;38.704;0.152;2024-03-07T05:00:06;7.93;;;3.57;;
10174;SDS011;18221;38.704;0.152;2024-03-07T05:02:39;11.30;;;4.13;;
10174;SDS011;18221;38.704;0.152;2024-03-07T05:05:07;10.03;;;3.80;;
10174;SDS011;18221;38.704;0.152;2024-03-07T05:07:35;6.37;;;3.80;;
10174;SDS011;18221;38.704;0.152;2024-03-07T05:10:05;5.67;;;3.40;;
10174;SDS011;18221;38.704;0.152;2024-03-07T05:12:34;9.57;;;3.27;;
10174;SDS011;18221;38.704;0.152;2024-03-07T05:15:05;5.10;;;3.30;;
10174;SDS011;18221;38.704;0.152;2024-03-07T05:17:35;8.93;;;3.40;;
10174;SDS011;18221;38.704;0.152;2024-03-07T05:20:05;5.67;;;2.97;;
10174;SDS011;18221;38.704;0.152;2024-03-07T05:22:35;6.23;;;3.33;;
10174;SDS011;18221;38.704;0.152;2024-03-07T05:25:07;7.93;;;3.87;;
10174;SDS011;18221;38.704;0.152;2024-03-07T05:27:35;11.40;;;4.03;;
10174;SDS011;18221;38.704;0.152;2024-03-07T05:30:04;8.47;;;3.70;;
10174;SDS011;18221;38.704;0.152;2024-03-07T05:32:36;9.90;;;3.90;;
10174;SDS011;18221;38.704;0.152;2024-03-07T05:35:06;8.07;;;3.63;;
10174;SDS011;18221;38.704;0.152;2024-03-07T05:37:36;7.20;;;3.50;;
10174;SDS011;18221;38.704;0.152;2024-03-07T05:40:09;9.53;;;3.33;;
10174;SDS011;18221;38.704;0.152;2024-03-07T05:42:37;10.37;;;3.43;;
10174;SDS011;18221;38.704;0.152;2024-03-07T05:45:06;7.90;;;3.47;;
10174;SDS011;18221;38.704;0.152;2024-03-07T05:47:35;6.13;;;3.90;;
10174;SDS011;18221;38.704;0.152;2024-03-07T05:50:04;6.37;;;3.07;;
10174;SDS011;18221;38.704;0.152;2024-03-07T05:52:34;8.40;;;4.07;;
10174;SDS011;18221;38.704;0.152;2024-03-07T05:55:02;6.40;;;3.30;;
10174;SDS011;18221;38.704;0.152;2024-03-07T05:57:33;9.13;;;3.47;;
10174;SDS011;18221;38.704;0.152;2024-03-07T06:00:01;7.77;;;3.30;;
10174;SDS011;18221;38.704;0.152;2024-03-07T06:02:34;5.43;;;2.60;;
10174;SDS011;18221;38.704;0.152;2024-03-07T06:05:02;7.77;;;3.37;;
10174;SDS011;18221;38.704;0.152;2024-03-07T06:07:35;4.30;;;2.90;;
10174;SDS011;18221;38.704;0.152;2024-03-07T06:10:03;4.23;;;2.80;;
10174;SDS011;18221;38.704;0.152;2024-03-07T06:12:37;6.83;;;3.20;;
10174;SDS011;18221;38.704;0.152;2024-03-07T06:15:10;6.50;;;2.93;;
10174;SDS011;18221;38.704;0.152;2024-03-07T06:17:38;6.57;;;2.70;;
10174;SDS011;18221;38.704;0.152;2024-03-07T06:20:07;8.80;;;2.53;;
10174;SDS011;18221;38.704;0.152;2024-03-07T06:22:47;7.80;;;2.97;;
10174;SDS011;18221;38.704;0.152;2024-03-07T06:25:17;10.30;;;2.83;;
10174;SDS011;18221;38.704;0.152;2024-03-07T06:28:00;6.93;;;3.07;;
10174;SDS011;18221;38.704;0.152;2024-03-07T06:30:34;8.43;;;2.97;;
10174;SDS011;18221;38.704;0.152;2024-03-07T06:33:03;5.87;;;2.70;;
10174;SDS011;18221;38.704;0.152;2024-03-07T06:35:31;5.57;;;2.30;;
10174;SDS011;18221;38.704;0.152;2024-03-07T06:38:02;6.73;;;2.23;;
10174;SDS011;18221;38.704;0.152;2024-03-07T06:40:30;6.73;;;2.60;;
10174;SDS011;18221;38.704;0.152;2024-03-07T06:43:00;9.73;;;2.30;;
10174;SDS011;18221;38.704;0.152;2024-03-07T06:45:29;6.10;;;2.43;;
10174;SDS011;18221;38.704;0.152;2024-03-07T06:47:57;6.27;;;2.10;;
10174;SDS011;18221;38.704;0.152;2024-03-07T06:50:24;5.93;;;2.33;;
10174;SDS011;18221;38.704;0.152;2024-03-07T06:52:54;8.23;;;3.73;;
10174;SDS011;18221;38.704;0.152;2024-03-07T06:55:22;11.47;;;6.07;;
10174;SDS011;18221;38.704;0.152;2024-03-07T06:57:50;13.83;;;7.43;;
10174;SDS011;18221;38.704;0.152;2024-03-07T07:00:20;11.77;;;6.37;;
10174;SDS011;18221;38.704;0.152;2024-03-07T07:02:48;12.40;;;6.33;;
10174;SDS011;18221;38.704;0.152;2024-03-07T07:05:18;10.57;;;5.80;;
10174;SDS011;18221;38.704;0.152;2024-03-07T07:07:46;8.23;;;4.80;;
10174;SDS011;18221;38.704;0.152;2024-03-07T07:10:14;7.93;;;3.37;;
10174;SDS011;18221;38.704;0.152;2024-03-07T07:12:43;5.97;;;3.17;;
10174;SDS011;18221;38.704;0.152;2024-03-07T07:15:13;10.60;;;5.50;;
10174;SDS011;18221;38.704;0.152;2024-03-07T07:17:45;14.33;;;7.67;;
10174;SDS011;18221;38.704;0.152;2024-03-07T07:20:14;11.80;;;7.77;;
10174;SDS011;18221;38.704;0.152;2024-03-07T07:22:43;11.37;;;7.97;;
10174;SDS011;18221;38.704;0.152;2024-03-07T07:25:14;19.77;;;7.83;;
10174;SDS011;18221;38.704;0.152;2024-03-07T07:27:43;14.67;;;6.77;;
10174;SDS011;18221;38.704;0.152;2024-03-07T07:30:15;16.63;;;7.50;;
10174;SDS011;18221;38.704;0.152;2024-03-07T07:32:46;14.57;;;6.60;;
10174;SDS011;18221;38.704;0.152;2024-03-07T07:35:14;12.37;;;6.23;;
10174;SDS011;18221;38.704;0.152;2024-03-07T07:37:44;9.20;;;6.50;;
10174;SDS011;18221;38.704;0.152;2024-03-07T07:40:15;13.73;;;8.50;;
10174;SDS011;18221;38.704;0.152;2024-03-07T07:42:45;13.47;;;8.50;;
10174;SDS011;18221;38.704;0.152;2024-03-07T07:45:13;14.30;;;10.00;;
10174;SDS011;18221;38.704;0.152;2024-03-07T07:47:42;14.33;;;10.80;;
10174;SDS011;18221;38.704;0.152;2024-03-07T07:50:14;16.57;;;9.80;;
10174;SDS011;18221;38.704;0.152;2024-03-07T07:52:44;15.60;;;11.30;;
10174;SDS011;18221;38.704;0.152;2024-03-07T07:55:15;15.53;;;10.97;;
10174;SDS011;18221;38.704;0.152;2024-03-07T07:57:45;15.97;;;11.47;;
10174;SDS011;18221;38.704;0.152;2024-03-07T08:00:14;17.57;;;12.77;;
10174;SDS011;18221;38.704;0.152;2024-03-07T08:02:52;19.43;;;12.17;;
10174;SDS011;18221;38.704;0.152;2024-03-07T08:05:21;23.63;;;12.00;;
10174;SDS011;18221;38.704;0.152;2024-03-07T08:07:53;22.13;;;12.80;;
10174;SDS011;18221;38.704;0.152;2024-03-07T08:10:23;16.73;;;11.50;;
10174;SDS011;18221;38.704;0.152;2024-03-07T08:12:54;16.70;;;11.47;;
10174;SDS011;18221;38.704;0.152;2024-03-07T08:15:22;17.37;;;10.60;;
10174;SDS011;18221;38.704;0.152;2024-03-07T08:17:54;14.60;;;10.53;;
10174;SDS011;18221;38.704;0.152;2024-03-07T08:20:25;15.67;;;10.97;;
10174;SDS011;18221;38.704;0.152;2024-03-07T08:22:54;17.20;;;10.97;;
10174;SDS011;18221;38.704;0.152;2024-03-07T08:25:23;18.80;;;11.03;;
10174;SDS011;18221;38.704;0.152;2024-03-07T08:27:54;18.87;;;10.67;;
10174;SDS011;18221;38.704;0.152;2024-03-07T08:30:24;17.53;;;10.67;;
10174;SDS011;18221;38.704;0.152;2024-03-07T08:32:55;16.57;;;10.63;;
10174;SDS011;18221;38.704;0.152;2024-03-07T08:35:27;18.53;;;10.63;;
10174;SDS011;18221;38.704;0.152;2024-03-07T08:37:58;19.53;;;10.30;;
10174;SDS011;18221;38.704;0.152;2024-03-07T08:40:26;18.07;;;11.07;;
10174;SDS011;18221;38.704;0.152;2024-03-07T08:42:57;16.10;;;10.63;;
10174;SDS011;18221;38.704;0.152;2024-03-07T08:45:26;20.03;;;11.07;;
10174;SDS011;18221;38.704;0.152;2024-03-07T08:47:59;18.77;;;11.37;;
10174;SDS011;18221;38.704;0.152;2024-03-07T08:50:29;16.83;;;11.37;;
10174;SDS011;18221;38.704;0.152;2024-03-07T08:52:59;17.97;;;10.40;;
10174;SDS011;18221;38.704;0.152;2024-03-07T08:55:27;16.17;;;10.07;;
10174;SDS011;18221;38.704;0.152;2024-03-07T08:57:55;19.00;;;10.50;;
10174;SDS011;18221;38.704;0.152;2024-03-07T09:00:26;15.90;;;9.50;;
10174;SDS011;18221;38.704;0.152;2024-03-07T09:02:54;14.83;;;9.83;;
10174;SDS011;18221;38.704;0.152;2024-03-07T09:05:25;18.67;;;10.47;;
10174;SDS011;18221;38.704;0.152;2024-03-07T09:07:53;16.93;;;9.60;;
10174;SDS011;18221;38.704;0.152;2024-03-07T09:10:22;12.17;;;8.60;;
10174;SDS011;18221;38.704;0.152;2024-03-07T09:12:50;14.00;;;8.90;;
10174;SDS011;18221;38.704;0.152;2024-03-07T09:15:19;7.30;;;4.13;;
10174;SDS011;18221;38.704;0.152;2024-03-07T09:17:47;9.10;;;4.90;;
10174;SDS011;18221;38.704;0.152;2024-03-07T09:20:15;16.53;;;8.13;;
10174;SDS011;18221;38.704;0.152;2024-03-07T09:22:45;9.93;;;6.40;;
10174;SDS011;18221;38.704;0.152;2024-03-07T09:25:15;11.37;;;4.43;;
10174;SDS011;18221;38.704;0.152;2024-03-07T09:27:44;14.77;;;5.73;;
10174;SDS011;18221;38.704;0.152;2024-03-07T09:30:12;7.73;;;5.10;;
10174;SDS011;18221;38.704;0.152;2024-03-07T09:32:42;6.40;;;3.57;;
10174;SDS011;18221;38.704;0.152;2024-03-07T09:35:10;9.63;;;4.50;;
10174;SDS011;18221;38.704;0.152;2024-03-07T09:37:39;6.97;;;3.80;;
10174;SDS011;18221;38.704;0.152;2024-03-07T09:40:09;6.40;;;3.30;;
10174;SDS011;18221;38.704;0.152;2024-03-07T09:42:42;7.00;;;2.10;;
10174;SDS011;18221;38.704;0.152;2024-03-07T09:45:13;3.80;;;2.17;;
10174;SDS011;18221;38.704;0.152;2024-03-07T09:47:44;5.53;;;2.00;;
10174;SDS011;18221;38.704;0.152;2024-03-07T09:50:15;5.70;;;2.30;;
10174;SDS011;18221;38.704;0.152;2024-03-07T09:52:48;7.43;;;2.13;;
10174;SDS011;18221;38.704;0.152;2024-03-07T09:55:21;7.73;;;2.30;;
10174;SDS011;18221;38.704;0.152;2024-03-07T09:57:50;4.67;;;1.93;;
10174;SDS011;18221;38.704;0.152;2024-03-07T10:00:18;7.73;;;2.37;;
10174;SDS011;18221;38.704;0.152;2024-03-07T10:02:53;4.30;;;2.10;;
10174;SDS011;18221;38.704;0.152;2024-03-07T10:05:24;5.40;;;2.10;;
10174;SDS011;18221;38.704;0.152;2024-03-07T10:07:55;4.00;;;2.00;;
10174;SDS011;18221;38.704;0.152;2024-03-07T10:10:24;5.90;;;2.13;;
10174;SDS011;18221;38.704;0.152;2024-03-07T10:12:52;3.40;;;1.80;;
10174;SDS011;18221;38.704;0.152;2024-03-07T10:15:22;3.87;;;1.63;;
10174;SDS011;18221;38.704;0.152;2024-03-07T10:17:55;5.63;;;2.00;;
10174;SDS011;18221;38.704;0.152;2024-03-07T10:20:24;7.73;;;2.30;;
10174;SDS011;18221;38.704;0.152;2024-03-07T10:22:52;4.67;;;2.00;;
10174;SDS011;18221;38.704;0.152;2024-03-07T10:25:21;4.50;;;1.90;;
10174;SDS011;18221;38.704;0.152;2024-03-07T10:27:52;4.10;;;1.67;;
10174;SDS011;18221;38.704;0.152;2024-03-07T10:30:20;4.67;;;1.90;;
10174;SDS011;18221;38.704;0.152;2024-03-07T10:32:49;3.60;;;1.77;;
10174;SDS011;18221;38.704;0.152;2024-03-07T10:35:21;4.40;;;1.80;;
10174;SDS011;18221;38.704;0.152;2024-03-07T10:37:50;6.47;;;1.80;;
10174;SDS011;18221;38.704;0.152;2024-03-07T10:40:20;8.03;;;2.00;;
10174;SDS011;18221;38.704;0.152;2024-03-07T10:42:48;3.77;;;1.70;;
10174;SDS011;18221;38.704;0.152;2024-03-07T10:45:19;4.33;;;1.63;;
10174;SDS011;18221;38.704;0.152;2024-03-07T10:47:50;6.93;;;2.23;;
10174;SDS011;18221;38.704;0.152;2024-03-07T10:50:25;4.93;;;1.83;;
10174;SDS011;18221;38.704;0.152;2024-03-07T10:53:07;6.83;;;2.03;;
10174;SDS011;18221;38.704;0.152;2024-03-07T10:55:51;5.60;;;1.90;;
10174;SDS011;18221;38.704;0.152;2024-03-07T10:58:42;6.83;;;2.20;;
10174;SDS011;18221;38.704;0.152;2024-03-07T11:01:28;7.80;;;2.20;;
10174;SDS011;18221;38.704;0.152;2024-03-07T11:04:00;5.13;;;1.63;;
10174;SDS011;18221;38.704;0.152;2024-03-07T11:06:31;4.47;;;1.77;;
10174;SDS011;18221;38.704;0.152;2024-03-07T11:09:02;2.63;;;1.70;;
10174;SDS011;18221;38.704;0.152;2024-03-07T11:11:36;9.13;;;1.80;;
10174;SDS011;18221;38.704;0.152;2024-03-07T11:14:07;3.93;;;1.60;;
10174;SDS011;18221;38.704;0.152;2024-03-07T11:16:39;4.47;;;1.80;;
10174;SDS011;18221;38.704;0.152;2024-03-07T11:19:18;5.93;;;1.43;;
10174;SDS011;18221;38.704;0.152;2024-03-07T11:21:52;9.33;;;2.20;;
10174;SDS011;18221;38.704;0.152;2024-03-07T11:24:25;7.10;;;2.00;;
10174;SDS011;18221;38.704;0.152;2024-03-07T11:26:56;6.73;;;2.00;;
10174;SDS011;18221;38.704;0.152;2024-03-07T11:29:44;3.53;;;1.83;;
10174;SDS011;18221;38.704;0.152;2024-03-07T11:32:19;5.10;;;2.30;;
10174;SDS011;18221;38.704;0.152;2024-03-07T11:34:49;4.80;;;1.90;;
10174;SDS011;18221;38.704;0.152;2024-03-07T11:37:20;4.83;;;1.57;;
10174;SDS011;18221;38.704;0.152;2024-03-07T11:40:11;5.13;;;1.70;;
10174;SDS011;18221;38.704;0.152;2024-03-07T11:42:46;6.27;;;1.97;;
10174;SDS011;18221;38.704;0.152;2024-03-07T11:45:15;5.00;;;1.80;;
10174;SDS011;18221;38.704;0.152;2024-03-07T11:47:52;5.23;;;2.07;;
10174;SDS011;18221;38.704;0.152;2024-03-07T11:50:25;6.97;;;2.23;;
10174;SDS011;18221;38.704;0.152;2024-03-07T11:52:53;6.87;;;2.10;;
10174;SDS011;18221;38.704;0.152;2024-03-07T11:55:22;6.33;;;2.17;;
10174;SDS011;18221;38.704;0.152;2024-03-07T11:57:50;5.17;;;1.90;;
10174;SDS011;18221;38.704;0.152;2024-03-07T12:00:18;4.00;;;1.90;;
10174;SDS011;18221;38.704;0.152;2024-03-07T12:02:49;3.53;;;1.90;;
10174;SDS011;18221;38.704;0.152;2024-03-07T12:05:18;5.77;;;2.00;;
10174;SDS011;18221;38.704;0.152;2024-03-07T12:07:46;4.37;;;2.00;;
10174;SDS011;18221;38.704;0.152;2024-03-07T12:10:15;5.93;;;1.77;;
10174;SDS011;18221;38.704;0.152;2024-03-07T12:12:49;5.80;;;1.87;;
10174;SDS011;18221;38.704;0.152;2024-03-07T12:15:17;6.07;;;2.10;;
10174;SDS011;18221;38.704;0.152;2024-03-07T12:17:46;9.50;;;2.20;;
10174;SDS011;18221;38.704;0.152;2024-03-07T12:20:17;6.13;;;1.90;;
10174;SDS011;18221;38.704;0.152;2024-03-07T12:22:56;8.23;;;2.23;;
10174;SDS011;18221;38.704;0.152;2024-03-07T12:25:27;4.80;;;2.10;;
10174;SDS011;18221;38.704;0.152;2024-03-07T15:16:22;6.27;;;2.23;;
10174;SDS011;18221;38.704;0.152;2024-03-07T15:18:51;5.23;;;1.80;;
10174;SDS011;18221;38.704;0.152;2024-03-07T15:21:18;10.03;;;2.43;;
10174;SDS011;18221;38.704;0.152;2024-03-07T15:23:47;8.30;;;1.80;;
10174;SDS011;18221;38.704;0.152;2024-03-07T15:26:17;6.83;;;2.10;;
10174;SDS011;18221;38.704;0.152;2024-03-07T15:28:48;7.27;;;2.00;;
10174;SDS011;18221;38.704;0.152;2024-03-07T15:31:16;10.37;;;2.20;;
10174;SDS011;18221;38.704;0.152;2024-03-07T15:33:49;7.60;;;2.00;;
10174;SDS011;18221;38.704;0.152;2024-03-07T15:36:17;10.20;;;2.23;;
10174;SDS011;18221;38.704;0.152;2024-03-07T15:38:47;7.87;;;2.50;;
10174;SDS011;18221;38.704;0.152;2024-03-07T15:41:15;6.60;;;2.27;;
10174;SDS011;18221;38.704;0.152;2024-03-07T15:43:43;11.77;;;2.50;;
10174;SDS011;18221;38.704;0.152;2024-03-07T15:46:11;11.97;;;2.40;;
10174;SDS011;18221;38.704;0.152;2024-03-07T15:48:41;8.83;;;2.50;;
10174;SDS011;18221;38.704;0.152;2024-03-07T15:51:14;8.63;;;2.40;;
10174;SDS011;18221;38.704;0.152;2024-03-07T15:53:44;6.67;;;2.10;;
10174;SDS011;18221;38.704;0.152;2024-03-07T15:56:12;7.67;;;2.20;;
10174;SDS011;18221;38.704;0.152;2024-03-07T15:58:40;7.43;;;1.83;;
10174;SDS011;18221;38.704;0.152;2024-03-07T16:01:09;6.20;;;2.10;;
10174;SDS011;18221;38.704;0.152;2024-03-07T16:03:37;10.03;;;2.47;;
10174;SDS011;18221;38.704;0.152;2024-03-07T16:06:04;9.23;;;2.37;;
10174;SDS011;18221;38.704;0.152;2024-03-07T16:08:34;9.50;;;2.23;;
10174;SDS011;18221;38.704;0.152;2024-03-07T16:11:02;7.97;;;2.40;;
10174;SDS011;18221;38.704;0.152;2024-03-07T16:13:30;10.17;;;2.60;;
10174;SDS011;18221;38.704;0.152;2024-03-07T16:15:58;6.43;;;2.17;;
10174;SDS011;18221;38.704;0.152;2024-03-07T16:18:29;8.33;;;2.20;;
10174;SDS011;18221;38.704;0.152;2024-03-07T16:20:57;10.50;;;2.10;;
10174;SDS011;18221;38.704;0.152;2024-03-07T16:23:25;13.07;;;2.20;;
10174;SDS011;18221;38.704;0.152;2024-03-07T16:25:55;9.83;;;2.20;;
10174;SDS011;18221;38.704;0.152;2024-03-07T16:28:29;11.23;;;2.43;;
10174;SDS011;18221;38.704;0.152;2024-03-07T16:30:57;8.90;;;2.37;;
10174;SDS011;18221;38.704;0.152;2024-03-07T16:33:26;10.47;;;2.50;;
10174;SDS011;18221;38.704;0.152;2024-03-07T16:35:54;7.70;;;2.53;;
10174;SDS011;18221;38.704;0.152;2024-03-07T16:38:22;11.20;;;2.57;;
10174;SDS011;18221;38.704;0.152;2024-03-07T16:40:50;10.10;;;2.40;;
10174;SDS011;18221;38.704;0.152;2024-03-07T16:43:19;13.33;;;2.70;;
10174;SDS011;18221;38.704;0.152;2024-03-07T16:45:49;7.73;;;2.47;;
10174;SDS011;18221;38.704;0.152;2024-03-07T16:48:18;9.13;;;2.73;;
10174;SDS011;18221;38.704;0.152;2024-03-07T16:50:46;8.37;;;2.27;;
10174;SDS011;18221;38.704;0.152;2024-03-07T16:53:14;7.80;;;2.20;;
10174;SDS011;18221;38.704;0.152;2024-03-07T16:55:42;8.17;;;2.03;;
10174;SDS011;18221;38.704;0.152;2024-03-07T16:58:10;13.67;;;2.97;;
10174;SDS011;18221;38.704;0.152;2024-03-07T17:00:39;11.53;;;2.60;;
10174;SDS011;18221;38.704;0.152;2024-03-07T17:03:08;9.07;;;2.07;;
10174;SDS011;18221;38.704;0.152;2024-03-07T17:05:37;10.83;;;2.57;;
10174;SDS011;18221;38.704;0.152;2024-03-07T17:08:08;9.63;;;2.40;;
10174;SDS011;18221;38.704;0.152;2024-03-07T17:10:38;13.63;;;3.00;;
10174;SDS011;18221;38.704;0.152;2024-03-07T17:13:07;9.80;;;2.40;;
10174;SDS011;18221;38.704;0.152;2024-03-07T17:15:36;7.23;;;2.10;;
10174;SDS011;18221;38.704;0.152;2024-03-07T17:18:07;8.50;;;2.20;;
10174;SDS011;18221;38.704;0.152;2024-03-07T17:20:35;12.33;;;2.77;;
10174;SDS011;18221;38.704;0.152;2024-03-07T17:23:04;9.70;;;2.70;;
10174;SDS011;18221;38.704;0.152;2024-03-07T17:25:33;10.23;;;2.43;;
10174;SDS011;18221;38.704;0.152;2024-03-07T17:28:01;9.47;;;2.50;;
10174;SDS011;18221;38.704;0.152;2024-03-07T17:30:29;10.60;;;2.63;;
10174;SDS011;18221;38.704;0.152;2024-03-07T17:32:58;9.60;;;2.50;;
10174;SDS011;18221;38.704;0.152;2024-03-07T17:35:26;12.77;;;2.67;;
10174;SDS011;18221;38.704;0.152;2024-03-07T17:37:54;8.43;;;2.67;;
10174;SDS011;18221;38.704;0.152;2024-03-07T17:40:21;13.17;;;3.03;;
10174;SDS011;18221;38.704;0.152;2024-03-07T17:42:51;10.13;;;2.63;;
10174;SDS011;18221;38.704;0.152;2024-03-07T17:45:21;16.13;;;3.67;;
10174;SDS011;18221;38.704;0.152;2024-03-07T17:47:53;10.57;;;3.57;;
10174;SDS011;18221;38.704;0.152;2024-03-07T17:50:25;11.63;;;3.00;;
10174;SDS011;18221;38.704;0.152;2024-03-07T17:52:57;11.10;;;3.07;;
10174;SDS011;18221;38.704;0.152;2024-03-07T17:55:32;11.20;;;2.70;;
10174;SDS011;18221;38.704;0.152;2024-03-07T17:58:01;13.67;;;3.33;;
10174;SDS011;18221;38.704;0.152;2024-03-07T18:00:30;12.37;;;3.27;;
10174;SDS011;18221;38.704;0.152;2024-03-07T18:03:03;11.20;;;2.80;;
10174;SDS011;18221;38.704;0.152;2024-03-07T18:05:34;11.83;;;3.57;;
10174;SDS011;18221;38.704;0.152;2024-03-07T18:08:07;7.93;;;4.00;;